createdAt,value
2022-08-27T00:01:51.653Z,18.10
2022-08-27T00:04:19.905Z,18.10
2022-08-27T00:06:48.169Z,18.00
2022-08-27T00:09:16.438Z,18.10
2022-08-27T00:11:48.703Z,18.00
2022-08-27T00:14:16.802Z,18.00
2022-08-27T00:16:45.223Z,18.00
2022-08-27T00:19:14.890Z,18.10
2022-08-27T00:21:43.090Z,18.10
2022-08-27T00:24:12.444Z,18.10
2022-08-27T00:26:43.321Z,18.10
2022-08-27T00:29:11.776Z,18.10
2022-08-27T00:31:40.147Z,18.10
2022-08-27T00:34:08.388Z,18.00
2022-08-27T00:36:43.515Z,18.00
2022-08-27T00:39:12.185Z,18.00
2022-08-27T00:41:42.617Z,18.00
2022-08-27T00:44:12.146Z,18.00
2022-08-27T00:46:45.430Z,17.90
2022-08-27T00:49:18.274Z,17.90
2022-08-27T00:51:52.530Z,17.90
2022-08-27T00:54:21.378Z,17.90
2022-08-27T00:56:51.525Z,17.90
2022-08-27T00:59:22.461Z,17.80
2022-08-27T01:02:08.105Z,17.80
2022-08-27T01:04:38.608Z,17.90
2022-08-27T01:07:09.431Z,17.90
2022-08-27T01:09:38.642Z,17.90
2022-08-27T01:12:07.534Z,17.90
2022-08-27T01:14:36.097Z,17.90
2022-08-27T01:17:05.235Z,17.90
2022-08-27T01:19:36.634Z,17.90
2022-08-27T01:22:22.000Z,17.90
2022-08-27T01:24:56.156Z,17.80
2022-08-27T01:27:27.934Z,17.80
2022-08-27T01:29:56.243Z,17.80
2022-08-27T01:32:27.043Z,17.80
2022-08-27T01:34:58.224Z,17.80
2022-08-27T01:37:28.620Z,17.70
2022-08-27T01:39:59.548Z,17.70
2022-08-27T01:42:31.221Z,17.80
2022-08-27T01:45:01.841Z,17.80
2022-08-27T01:47:34.512Z,17.80
2022-08-27T01:50:03.344Z,17.70
2022-08-27T01:52:32.522Z,17.70
2022-08-27T01:55:02.323Z,17.70
2022-08-27T01:57:31.006Z,17.70
2022-08-27T01:59:59.231Z,17.60
2022-08-27T02:02:28.304Z,17.60
2022-08-27T02:04:56.399Z,17.70
2022-08-27T02:07:24.579Z,17.70
2022-08-27T02:09:52.824Z,17.60
2022-08-27T02:12:22.392Z,17.60
2022-08-27T02:14:50.546Z,17.60
2022-08-27T02:17:18.926Z,17.60
2022-08-27T02:19:47.037Z,17.60
2022-08-27T02:22:15.238Z,17.60
2022-08-27T02:24:43.399Z,17.60
2022-08-27T02:27:12.227Z,17.50
2022-08-27T02:29:41.887Z,17.50
2022-08-27T02:32:20.671Z,17.50
2022-08-27T02:34:52.460Z,17.50
2022-08-27T02:37:22.407Z,17.50
2022-08-27T02:39:50.871Z,17.50
2022-08-27T02:42:19.092Z,17.60
2022-08-27T02:44:48.532Z,17.50
2022-08-27T02:47:17.088Z,17.60
2022-08-27T02:49:45.653Z,17.50
2022-08-27T02:52:13.813Z,17.60
2022-08-27T02:54:42.470Z,17.60
2022-08-27T02:57:10.869Z,17.60
2022-08-27T02:59:38.978Z,17.60
2022-08-27T03:02:09.988Z,17.60
2022-08-27T03:04:38.300Z,17.60
2022-08-27T03:07:06.371Z,17.50
2022-08-27T03:09:34.513Z,17.50
2022-08-27T03:12:03.443Z,17.50
2022-08-27T03:14:31.780Z,17.50
2022-08-27T03:17:20.419Z,17.40
2022-08-27T03:19:50.675Z,17.40
2022-08-27T03:22:18.808Z,17.30
2022-08-27T03:24:47.071Z,17.30
2022-08-27T03:27:15.510Z,17.30
2022-08-27T03:29:43.674Z,17.30
2022-08-27T03:32:11.894Z,17.30
2022-08-27T03:34:40.054Z,17.30
2022-08-27T03:37:09.547Z,17.30
2022-08-27T03:39:37.710Z,17.40
2022-08-27T03:42:06.579Z,17.30
2022-08-27T03:44:35.135Z,17.30
2022-08-27T03:47:04.195Z,17.40
2022-08-27T03:49:32.871Z,17.30
2022-08-27T03:52:01.527Z,17.30
2022-08-27T03:54:31.245Z,17.20
2022-08-27T03:56:59.437Z,17.20
2022-08-27T03:59:27.491Z,17.30
2022-08-27T04:01:55.579Z,17.30
2022-08-27T04:04:24.274Z,17.30
2022-08-27T04:06:52.651Z,17.30
2022-08-27T04:09:20.888Z,17.30
2022-08-27T04:11:50.379Z,17.30
2022-08-27T04:14:24.902Z,17.30
2022-08-27T04:16:56.163Z,17.20
2022-08-27T04:19:27.767Z,17.20
2022-08-27T04:22:01.460Z,17.20
2022-08-27T04:24:31.584Z,17.20
2022-08-27T04:27:01.929Z,17.30
2022-08-27T04:29:30.505Z,17.20
2022-08-27T04:31:59.170Z,17.30
2022-08-27T04:34:27.596Z,17.20
2022-08-27T04:36:56.834Z,17.20
2022-08-27T04:39:25.911Z,17.20
2022-08-27T04:41:56.296Z,17.10
2022-08-27T04:44:26.939Z,17.20
2022-08-27T04:46:57.490Z,17.20
2022-08-27T04:49:26.965Z,17.20
2022-08-27T04:51:55.711Z,17.10
2022-08-27T04:54:33.055Z,17.20
2022-08-27T04:57:02.902Z,17.10
2022-08-27T04:59:33.222Z,17.20
2022-08-27T05:02:04.495Z,17.20
2022-08-27T05:04:33.397Z,17.20
2022-08-27T05:07:02.234Z,17.20
2022-08-27T05:09:30.670Z,17.20
2022-08-27T05:11:58.960Z,17.20
2022-08-27T05:14:30.096Z,17.10
2022-08-27T05:17:00.395Z,17.10
2022-08-27T05:19:29.239Z,17.20
2022-08-27T05:21:57.817Z,17.10
2022-08-27T05:24:26.428Z,17.20
2022-08-27T05:26:54.956Z,17.20
2022-08-27T05:29:23.438Z,17.20
2022-08-27T05:31:51.721Z,17.20
2022-08-27T05:34:22.505Z,17.20
2022-08-27T05:36:54.268Z,17.30
2022-08-27T05:39:22.505Z,17.20
2022-08-27T05:41:52.339Z,17.30
2022-08-27T05:47:08.731Z,17.30
2022-08-27T05:49:38.810Z,17.40
2022-08-27T05:52:10.766Z,17.50
2022-08-27T05:54:39.776Z,17.50
2022-08-27T05:57:08.274Z,17.50
2022-08-27T05:59:54.545Z,17.60
2022-08-27T06:02:22.685Z,17.60
2022-08-27T06:04:52.560Z,17.70
2022-08-27T06:07:20.644Z,17.80
2022-08-27T06:09:48.803Z,17.80
2022-08-27T06:12:16.798Z,17.80
2022-08-27T06:14:44.930Z,17.80
2022-08-27T06:17:12.960Z,17.70
2022-08-27T06:19:42.495Z,17.70
2022-08-27T06:22:12.228Z,17.60
2022-08-27T06:24:41.475Z,17.70
2022-08-27T06:27:12.119Z,17.60
2022-08-27T06:29:40.459Z,17.70
2022-08-27T06:32:09.502Z,17.60
2022-08-27T06:34:38.370Z,17.60
2022-08-27T06:37:07.000Z,17.70
2022-08-27T06:39:38.158Z,17.70
2022-08-27T06:42:10.650Z,17.90
2022-08-27T06:44:38.810Z,17.90
2022-08-27T06:47:07.088Z,18.00
2022-08-27T06:49:35.202Z,18.10
2022-08-27T06:52:03.554Z,18.30
2022-08-27T06:54:32.381Z,18.30
2022-08-27T06:57:02.079Z,18.30
2022-08-27T06:59:30.395Z,18.40
2022-08-27T07:01:58.576Z,18.50
2022-08-27T07:04:32.182Z,18.50
2022-08-27T07:07:01.329Z,18.60
2022-08-27T07:09:31.996Z,18.60
2022-08-27T07:12:02.288Z,18.60
2022-08-27T07:14:35.662Z,18.60
2022-08-27T07:17:07.029Z,18.70
2022-08-27T07:19:41.127Z,18.60
2022-08-27T07:22:09.592Z,18.70
2022-08-27T07:24:38.565Z,18.70
2022-08-27T07:27:08.330Z,18.70
2022-08-27T07:29:36.422Z,18.70
2022-08-27T07:32:05.170Z,18.60
2022-08-27T07:34:33.275Z,18.70
2022-08-27T07:37:01.500Z,18.70
2022-08-27T07:39:29.579Z,18.60
2022-08-27T07:42:16.040Z,18.60
2022-08-27T07:44:45.740Z,18.80
2022-08-27T07:47:13.960Z,18.80
2022-08-27T07:49:42.068Z,18.90
2022-08-27T07:52:10.320Z,18.80
2022-08-27T07:54:38.505Z,18.90
2022-08-27T07:57:06.682Z,19.00
2022-08-27T07:59:34.968Z,19.10
2022-08-27T08:02:04.715Z,19.20
2022-08-27T08:04:32.941Z,19.20
2022-08-27T08:07:01.519Z,19.40
2022-08-27T08:09:30.951Z,19.50
2022-08-27T08:11:59.134Z,19.60
2022-08-27T08:14:28.487Z,19.50
2022-08-27T08:17:01.404Z,19.60
2022-08-27T08:19:33.020Z,19.60
2022-08-27T08:22:05.357Z,19.40
2022-08-27T08:24:34.574Z,19.40
2022-08-27T08:27:06.833Z,19.30
2022-08-27T08:29:35.414Z,19.30
2022-08-27T08:32:03.750Z,19.40
2022-08-27T08:34:33.578Z,19.50
2022-08-27T08:37:01.691Z,19.70
2022-08-27T08:39:29.807Z,19.90
2022-08-27T08:42:01.537Z,20.00
2022-08-27T08:44:35.582Z,20.10
2022-08-27T08:47:10.429Z,20.30
2022-08-27T08:49:50.026Z,20.50
2022-08-27T08:52:32.168Z,20.60
2022-08-27T08:55:09.950Z,20.70
2022-08-27T08:57:43.369Z,20.80
2022-08-27T09:00:14.247Z,21.10
2022-08-27T09:02:49.162Z,21.40
2022-08-27T09:05:18.826Z,21.60
2022-08-27T09:08:05.173Z,21.80
2022-08-27T09:10:48.370Z,21.70
2022-08-27T09:13:23.671Z,21.70
2022-08-27T09:15:55.356Z,21.50
2022-08-27T09:18:23.469Z,21.40
2022-08-27T09:21:08.716Z,21.40
2022-08-27T09:23:46.251Z,21.20
2022-08-27T09:26:27.169Z,21.10
2022-08-27T09:29:19.831Z,20.90
2022-08-27T09:31:54.183Z,20.80
2022-08-27T09:34:22.742Z,20.80
2022-08-27T09:37:03.126Z,20.80
2022-08-27T09:39:36.695Z,21.20
2022-08-27T09:42:06.087Z,21.50
2022-08-27T09:44:45.188Z,21.50
2022-08-27T09:47:15.784Z,21.70
2022-08-27T09:49:44.216Z,21.80
2022-08-27T09:52:31.818Z,21.90
2022-08-27T09:55:00.144Z,21.90
2022-08-27T09:57:35.277Z,21.80
2022-08-27T10:00:08.165Z,21.80
2022-08-27T10:02:36.386Z,21.80
2022-08-27T10:05:16.290Z,21.80
2022-08-27T10:07:53.785Z,21.90
2022-08-27T10:10:26.018Z,22.00
2022-08-27T10:13:00.167Z,21.60
2022-08-27T10:15:41.891Z,21.70
2022-08-27T10:18:16.254Z,21.90
2022-08-27T10:20:54.621Z,22.20
2022-08-27T10:23:35.820Z,22.00
2022-08-27T10:26:09.645Z,22.00
2022-08-27T10:28:51.133Z,21.90
2022-08-27T10:31:27.725Z,22.40
2022-08-27T10:34:12.193Z,22.60
2022-08-27T10:36:54.523Z,23.00
2022-08-27T10:39:42.538Z,22.80
2022-08-27T10:42:18.091Z,22.90
2022-08-27T10:44:54.026Z,23.10
2022-08-27T10:47:37.308Z,22.90
2022-08-27T10:50:08.968Z,22.90
2022-08-27T10:52:42.393Z,23.00
2022-08-27T10:55:19.229Z,23.00
2022-08-27T10:58:07.527Z,23.40
2022-08-27T11:00:44.234Z,23.30
2022-08-27T11:03:15.413Z,23.30
2022-08-27T11:05:48.435Z,23.20
2022-08-27T11:08:20.566Z,23.20
2022-08-27T11:10:53.070Z,23.00
2022-08-27T11:13:31.410Z,23.10
2022-08-27T11:16:02.916Z,23.30
2022-08-27T11:18:40.499Z,23.50
2022-08-27T11:21:15.779Z,23.60
2022-08-27T11:23:49.009Z,23.50
2022-08-27T11:26:18.540Z,23.50
2022-08-27T11:28:51.804Z,23.40
2022-08-27T11:31:29.928Z,23.60
2022-08-27T11:34:07.975Z,23.50
2022-08-27T11:36:56.933Z,23.50
2022-08-27T11:39:42.771Z,23.20
2022-08-27T11:42:20.166Z,23.10
2022-08-27T11:44:54.472Z,23.10
2022-08-27T11:47:25.879Z,23.00
2022-08-27T11:49:57.511Z,22.90
2022-08-27T11:52:29.416Z,22.80
2022-08-27T11:55:10.056Z,22.70
2022-08-27T11:57:40.772Z,22.70
2022-08-27T12:00:23.328Z,22.60
2022-08-27T12:03:02.210Z,22.60
2022-08-27T12:05:40.953Z,22.70
2022-08-27T12:08:21.195Z,22.90
2022-08-27T12:11:14.385Z,22.90
2022-08-27T12:13:52.082Z,23.00
2022-08-27T12:16:32.424Z,23.00
2022-08-27T12:19:14.250Z,23.10
2022-08-27T12:21:52.634Z,23.30
2022-08-27T12:24:42.185Z,23.50
2022-08-27T12:27:28.291Z,23.60
2022-08-27T12:30:00.139Z,23.50
2022-08-27T12:32:31.303Z,23.40
2022-08-27T12:35:10.667Z,23.20
2022-08-27T12:37:41.733Z,23.10
2022-08-27T12:40:24.396Z,22.90
2022-08-27T12:43:04.657Z,23.00
2022-08-27T12:45:35.721Z,23.20
2022-08-27T12:48:04.359Z,23.40
2022-08-27T12:50:32.735Z,23.50
2022-08-27T12:53:35.959Z,23.60
2022-08-27T12:56:36.851Z,23.70
2022-08-27T12:59:18.207Z,23.90
2022-08-27T13:01:59.980Z,23.70
2022-08-27T13:04:31.884Z,23.80
2022-08-27T13:06:59.937Z,23.80
2022-08-27T13:09:29.934Z,23.80
2022-08-27T13:11:59.741Z,23.70
2022-08-27T13:14:31.386Z,23.60
2022-08-27T13:17:05.769Z,23.50
2022-08-27T13:19:35.998Z,23.50
2022-08-27T13:22:07.109Z,23.30
2022-08-27T13:24:37.866Z,23.30
2022-08-27T13:27:07.092Z,23.30
2022-08-27T13:29:35.935Z,23.50
2022-08-27T13:32:06.305Z,23.40
2022-08-27T13:34:38.683Z,23.50
2022-08-27T13:37:08.848Z,23.50
2022-08-27T13:39:39.049Z,23.60
2022-08-27T13:42:09.189Z,23.30
2022-08-27T13:44:40.378Z,23.10
2022-08-27T13:47:15.937Z,23.00
2022-08-27T13:49:44.814Z,23.10
2022-08-27T13:52:25.878Z,23.00
2022-08-27T13:55:00.879Z,23.00
2022-08-27T13:57:32.178Z,23.10
2022-08-27T14:00:10.733Z,23.30
2022-08-27T14:02:40.446Z,23.40
2022-08-27T14:05:12.631Z,23.70
2022-08-27T14:07:45.339Z,23.70
2022-08-27T14:10:31.253Z,23.60
2022-08-27T14:13:02.221Z,23.60
2022-08-27T14:15:34.035Z,23.60
2022-08-27T14:18:04.928Z,23.50
2022-08-27T14:20:34.220Z,23.50
2022-08-27T14:23:02.540Z,23.40
2022-08-27T14:25:31.516Z,23.40
2022-08-27T14:27:59.517Z,23.30
2022-08-27T14:30:29.791Z,23.10
2022-08-27T14:33:00.189Z,23.10
2022-08-27T14:35:30.547Z,23.20
2022-08-27T14:37:59.679Z,23.20
2022-08-27T14:40:27.828Z,23.20
2022-08-27T14:42:55.963Z,23.10
2022-08-27T14:45:24.352Z,23.10
2022-08-27T14:47:52.681Z,23.10
2022-08-27T14:50:21.836Z,23.10
2022-08-27T14:52:51.373Z,23.10
2022-08-27T14:55:19.574Z,23.00
2022-08-27T14:57:47.625Z,22.70
2022-08-27T15:00:16.135Z,22.70
2022-08-27T15:02:48.302Z,22.70
2022-08-27T15:05:17.497Z,22.70
2022-08-27T15:07:47.375Z,22.60
2022-08-27T15:10:17.301Z,22.70
2022-08-27T15:12:45.302Z,22.80
2022-08-27T15:15:14.418Z,22.90
2022-08-27T15:17:43.182Z,23.00
2022-08-27T15:20:20.426Z,23.10
2022-08-27T15:22:52.090Z,23.00
2022-08-27T15:25:22.705Z,22.90
2022-08-27T15:27:51.140Z,22.80
2022-08-27T15:30:24.016Z,22.70
2022-08-27T15:32:52.028Z,22.60
2022-08-27T15:35:22.969Z,22.50
2022-08-27T15:37:50.952Z,22.40
2022-08-27T15:40:22.597Z,22.30
2022-08-27T15:42:56.126Z,22.20
2022-08-27T15:45:25.794Z,22.20
2022-08-27T15:47:55.947Z,22.10
2022-08-27T15:50:24.560Z,22.10
2022-08-27T15:52:56.176Z,22.10
2022-08-27T15:55:28.063Z,22.10
2022-08-27T15:57:56.431Z,22.10
2022-08-27T16:00:25.107Z,22.20
2022-08-27T16:02:54.063Z,22.30
2022-08-27T16:05:23.176Z,22.20
2022-08-27T16:07:51.696Z,22.10
2022-08-27T16:10:19.956Z,22.30
2022-08-27T16:12:49.366Z,22.30
2022-08-27T16:15:17.349Z,22.30
2022-08-27T16:17:45.562Z,22.20
2022-08-27T16:20:16.638Z,22.20
2022-08-27T16:22:45.651Z,22.20
2022-08-27T16:25:18.486Z,22.10
2022-08-27T16:27:50.153Z,22.10
2022-08-27T16:30:18.590Z,22.00
2022-08-27T16:32:49.134Z,22.00
2022-08-27T16:35:17.429Z,21.90
2022-08-27T16:37:45.633Z,21.90
2022-08-27T16:40:14.936Z,21.90
2022-08-27T16:42:46.320Z,21.80
2022-08-27T16:45:18.041Z,21.80
2022-08-27T16:48:03.462Z,21.80
2022-08-27T16:50:34.405Z,21.80
2022-08-27T16:53:03.881Z,21.80
2022-08-27T16:55:32.412Z,21.70
2022-08-27T16:58:01.101Z,21.60
2022-08-27T17:00:32.253Z,21.50
2022-08-27T17:03:00.401Z,21.40
2022-08-27T17:05:34.389Z,21.30
2022-08-27T17:08:03.697Z,21.30
2022-08-27T17:10:36.665Z,21.30
2022-08-27T17:13:04.742Z,21.20
2022-08-27T17:15:34.291Z,21.20
2022-08-27T17:18:03.780Z,21.20
2022-08-27T17:20:33.475Z,21.20
2022-08-27T17:23:02.021Z,21.20
2022-08-27T17:25:30.647Z,21.10
2022-08-27T17:28:00.369Z,21.10
2022-08-27T17:30:28.906Z,21.00
2022-08-27T17:32:58.473Z,21.00
2022-08-27T17:35:27.174Z,20.90
2022-08-27T17:37:55.346Z,20.90
2022-08-27T17:40:23.623Z,20.80
2022-08-27T17:42:51.878Z,20.70
2022-08-27T17:45:19.994Z,20.60
2022-08-27T17:47:48.027Z,20.60
2022-08-27T17:50:27.603Z,20.60
2022-08-27T17:52:55.674Z,20.50
2022-08-27T17:55:23.854Z,20.50
2022-08-27T17:57:51.863Z,20.50
2022-08-27T18:00:19.966Z,20.40
2022-08-27T18:02:50.810Z,20.40
2022-08-27T18:05:22.260Z,20.40
2022-08-27T18:07:52.177Z,20.30
2022-08-27T18:10:23.698Z,20.20
2022-08-27T18:12:52.943Z,20.20
2022-08-27T18:15:24.087Z,20.20
2022-08-27T18:17:53.402Z,20.10
2022-08-27T18:20:25.154Z,20.00
2022-08-27T18:22:53.638Z,19.90
2022-08-27T18:25:25.791Z,19.90
2022-08-27T18:27:56.868Z,19.70
2022-08-27T18:30:26.150Z,19.70
2022-08-27T18:32:54.385Z,19.60
2022-08-27T18:35:26.236Z,19.60
2022-08-27T18:37:54.510Z,19.50
2022-08-27T18:40:24.999Z,19.50
2022-08-27T18:42:53.639Z,19.40
2022-08-27T18:45:26.483Z,19.40
2022-08-27T18:47:58.916Z,19.30
2022-08-27T18:50:28.960Z,19.30
2022-08-27T18:52:58.312Z,19.20
2022-08-27T18:55:28.596Z,19.10
2022-08-27T18:57:56.641Z,19.10
2022-08-27T19:00:25.239Z,19.00
2022-08-27T19:02:54.001Z,18.90
2022-08-27T19:05:26.567Z,18.90
2022-08-27T19:07:56.746Z,18.80
2022-08-27T19:10:25.322Z,18.70
2022-08-27T19:12:53.739Z,18.70
2022-08-27T19:15:22.367Z,18.60
2022-08-27T19:17:56.409Z,18.50
2022-08-27T19:20:24.542Z,18.40
2022-08-27T19:22:52.590Z,18.30
2022-08-27T19:25:22.943Z,18.30
2022-08-27T19:27:52.682Z,18.20
2022-08-27T19:30:20.747Z,18.10
2022-08-27T19:32:49.072Z,18.10
2022-08-27T19:35:25.260Z,18.00
2022-08-27T19:37:53.864Z,17.90
2022-08-27T19:40:23.848Z,17.90
2022-08-27T19:42:52.283Z,17.80
2022-08-27T19:45:23.722Z,17.80
2022-08-27T19:47:53.221Z,17.70
2022-08-27T19:50:22.227Z,17.70
2022-08-27T19:52:50.534Z,17.70
2022-08-27T19:55:19.163Z,17.70
2022-08-27T19:57:48.694Z,17.70
2022-08-27T20:00:20.238Z,17.70
2022-08-27T20:02:50.654Z,17.60
2022-08-27T20:05:20.203Z,17.60
2022-08-27T20:07:48.853Z,17.50
2022-08-27T20:10:17.756Z,17.50
2022-08-27T20:12:46.227Z,17.50
2022-08-27T20:15:15.925Z,17.40
2022-08-27T20:17:45.285Z,17.40
2022-08-27T20:20:13.933Z,17.30
2022-08-27T20:22:42.144Z,17.30
2022-08-27T20:25:10.843Z,17.20
2022-08-27T20:27:39.113Z,17.20
2022-08-27T20:30:09.950Z,17.10
2022-08-27T20:32:39.562Z,17.10
2022-08-27T20:35:09.106Z,17.00
2022-08-27T20:37:42.154Z,17.00
2022-08-27T20:40:14.933Z,16.90
2022-08-27T20:42:44.320Z,16.80
2022-08-27T20:45:13.216Z,16.80
2022-08-27T20:47:44.312Z,16.70
2022-08-27T20:50:12.875Z,16.60
2022-08-27T20:52:41.292Z,16.50
2022-08-27T20:55:12.153Z,16.40
2022-08-27T20:58:04.513Z,16.40
2022-08-27T21:00:35.085Z,16.30
2022-08-27T21:03:04.877Z,16.20
2022-08-27T21:05:35.214Z,16.10
2022-08-27T21:08:04.831Z,16.10
2022-08-27T21:10:33.058Z,16.00
2022-08-27T21:13:04.765Z,15.90
2022-08-27T21:15:33.571Z,15.90
2022-08-27T21:18:01.625Z,15.70
2022-08-27T21:20:32.203Z,15.70
2022-08-27T21:23:01.237Z,15.60
2022-08-27T21:25:29.696Z,15.60
2022-08-27T21:28:00.283Z,15.50
2022-08-27T21:30:29.151Z,15.40
2022-08-27T21:32:57.632Z,15.30
2022-08-27T21:35:27.442Z,15.30
2022-08-27T21:37:58.078Z,15.30
2022-08-27T21:40:28.245Z,15.20
2022-08-27T21:42:56.983Z,15.20
2022-08-27T21:45:25.974Z,15.10
2022-08-27T21:47:54.179Z,15.00
2022-08-27T21:50:23.988Z,15.00
2022-08-27T21:52:53.500Z,14.90
2022-08-27T21:55:23.397Z,15.00
2022-08-27T21:57:51.520Z,14.90
2022-08-27T22:00:41.528Z,14.90
2022-08-27T22:03:14.011Z,14.80
2022-08-27T22:05:44.045Z,14.70
2022-08-27T22:08:13.387Z,14.70
2022-08-27T22:10:43.329Z,14.70
2022-08-27T22:13:12.085Z,14.60
2022-08-27T22:15:42.369Z,14.60
2022-08-27T22:18:10.609Z,14.60
2022-08-27T22:20:39.118Z,14.50
2022-08-27T22:23:09.252Z,14.50
2022-08-27T22:25:37.687Z,14.50
2022-08-27T22:28:06.271Z,14.40
2022-08-27T22:30:34.604Z,14.30
2022-08-27T22:33:04.052Z,14.40
2022-08-27T22:35:32.364Z,14.30
2022-08-27T22:38:00.669Z,14.40
2022-08-27T22:40:30.872Z,14.30
2022-08-27T22:42:59.830Z,14.20
2022-08-27T22:45:29.742Z,14.20
2022-08-27T22:47:58.218Z,14.10
2022-08-27T22:50:28.010Z,14.10
2022-08-27T22:52:56.235Z,14.10
2022-08-27T22:55:24.717Z,14.10
2022-08-27T22:57:55.703Z,14.10
2022-08-27T23:00:26.351Z,14.20
2022-08-27T23:02:54.637Z,14.20
2022-08-27T23:05:23.220Z,14.20
2022-08-27T23:07:52.993Z,14.20
2022-08-27T23:10:24.077Z,14.20
2022-08-27T23:12:53.488Z,14.30
2022-08-27T23:15:23.930Z,14.30
2022-08-27T23:17:52.262Z,14.20
2022-08-27T23:20:22.094Z,14.20
2022-08-27T23:22:53.082Z,14.20
2022-08-27T23:25:43.398Z,14.00
2022-08-27T23:28:14.812Z,14.00
2022-08-27T23:30:44.164Z,13.90
2022-08-27T23:33:13.004Z,13.80
2022-08-27T23:35:43.282Z,13.80
2022-08-27T23:38:13.200Z,13.80
2022-08-27T23:40:41.873Z,13.80
2022-08-27T23:43:09.901Z,13.80
2022-08-27T23:45:40.550Z,13.80
2022-08-27T23:48:09.262Z,13.80
2022-08-27T23:50:37.877Z,13.80
2022-08-27T23:53:07.312Z,13.80
2022-08-27T23:55:38.503Z,13.90
2022-08-27T23:58:07.635Z,13.90
